Time;durP1;ratioP1;P1;durP2;ratioP2;P2;SDS_P1;SDS_P2;PMS_P1;PMS_P2;Temp;Humidity;BMP_temperature;BMP_pressure;BME280_temperature;BME280_humidity;BME280_pressure;Samples;Min_cycle;Max_cycle;Signal;HPM_P1;HPM_P2
2021/08/16 00:00:04;;;;;;;14.47;13.60;;;19.50;99.90;;;;;;5090876;28;21022;-69
2021/08/16 00:02:31;;;;;;;14.80;13.40;;;19.40;99.90;;;;;;5084327;28;20443;-68
2021/08/16 00:04:58;;;;;;;14.50;13.90;;;19.30;99.90;;;;;;5072377;28;20511;-69
2021/08/16 00:07:25;;;;;;;13.40;12.80;;;19.30;99.90;;;;;;5069573;28;20445;-68
2021/08/16 00:09:52;;;;;;;13.43;12.90;;;19.20;99.90;;;;;;5063663;28;20441;-69
2021/08/16 00:12:19;;;;;;;12.70;12.20;;;19.10;99.90;;;;;;5061881;28;20440;-69
2021/08/16 00:14:45;;;;;;;12.67;12.00;;;19.00;99.90;;;;;;5063300;28;20471;-69
2021/08/16 00:17:14;;;;;;;12.37;11.77;;;19.00;99.90;;;;;;5080293;28;20451;-69
2021/08/16 00:19:40;;;;;;;13.60;12.90;;;18.90;99.90;;;;;;5093465;28;20479;-70
2021/08/16 00:22:08;;;;;;;13.13;12.63;;;18.80;99.90;;;;;;5089990;28;20458;-69
2021/08/16 00:24:34;;;;;;;13.10;12.40;;;18.70;99.90;;;;;;5081591;28;20561;-69
2021/08/16 00:27:01;;;;;;;12.47;11.97;;;18.50;99.90;;;;;;5081263;28;20446;-70
2021/08/16 00:29:28;;;;;;;13.17;12.33;;;18.50;99.90;;;;;;5082710;28;20439;-66
2021/08/16 00:31:55;;;;;;;13.23;12.40;;;18.50;99.90;;;;;;5065238;28;20452;-70
2021/08/16 00:34:23;;;;;;;13.33;12.60;;;18.40;99.90;;;;;;5061647;28;20491;-69
2021/08/16 00:36:51;;;;;;;12.90;12.30;;;18.30;99.90;;;;;;5064435;28;20455;-69
2021/08/16 00:39:18;;;;;;;13.00;12.10;;;18.20;99.90;;;;;;5057709;28;20480;-68
2021/08/16 00:41:46;;;;;;;12.30;11.70;;;18.20;99.90;;;;;;5074728;28;20470;-69
2021/08/16 00:44:13;;;;;;;12.10;11.40;;;18.10;99.90;;;;;;5080105;28;20467;-68
2021/08/16 00:46:41;;;;;;;12.70;11.97;;;18.00;99.90;;;;;;5078701;28;20443;-70
2021/08/16 00:49:08;;;;;;;13.20;12.30;;;18.00;99.90;;;;;;5078072;28;20447;-70
2021/08/16 00:51:37;;;;;;;12.63;11.87;;;17.90;99.90;;;;;;5075133;28;20948;-68
2021/08/16 00:54:07;;;;;;;12.10;11.30;;;17.80;99.90;;;;;;5055518;28;20467;-69
2021/08/16 00:56:34;;;;;;;11.93;11.37;;;17.70;99.90;;;;;;5051736;28;20447;-70
2021/08/16 00:59:01;;;;;;;12.27;11.50;;;17.70;99.90;;;;;;5053173;28;20567;-70
2021/08/16 01:01:29;;;;;;;12.23;11.53;;;17.70;99.90;;;;;;5059125;28;20452;-69
2021/08/16 01:03:56;;;;;;;12.90;12.20;;;17.60;99.90;;;;;;5057563;28;20796;-70
2021/08/16 01:06:29;;;;;;;12.67;12.10;;;17.60;99.90;;;;;;5063271;28;20444;-70
2021/08/16 01:08:57;;;;;;;12.77;12.07;;;17.50;99.90;;;;;;5072060;28;20435;-70
2021/08/16 02:51:12;;;;;;;13.40;12.40;;;17.10;99.90;;;;;;5034113;28;20450;-65
2021/08/16 02:54:21;;;;;;;14.07;13.30;;;17.10;99.90;;;;;;5033854;28;20457;-66
2021/08/16 03:13:50;;;;;;;14.07;13.37;;;17.00;99.90;;;;;;4986008;28;20469;-68
2021/08/16 03:20:21;;;;;;;14.13;13.30;;;16.90;99.90;;;;;;4977018;28;20484;-67
2021/08/16 03:23:34;;;;;;;14.00;13.30;;;16.90;99.90;;;;;;4977175;28;20492;-68
2021/08/16 04:41:39;;;;;;;14.60;13.83;;;17.10;99.90;;;;;;5017620;28;20462;-65
2021/08/16 05:14:26;;;;;;;16.70;15.77;;;17.40;99.90;;;;;;5081554;22;20563;-67
2021/08/16 05:16:53;;;;;;;18.20;16.63;;;17.50;99.90;;;;;;5078716;28;20447;-67
2021/08/16 05:19:20;;;;;;;18.03;16.30;;;17.40;99.90;;;;;;5075411;28;21117;-67
2021/08/16 05:21:46;;;;;;;17.97;16.77;;;17.40;99.90;;;;;;5065345;28;20458;-68
2021/08/16 05:24:13;;;;;;;17.23;16.03;;;17.40;99.90;;;;;;5055395;28;20833;-67
2021/08/16 05:26:40;;;;;;;16.97;15.90;;;17.50;99.90;;;;;;5042358;28;20444;-68
2021/08/16 05:29:06;;;;;;;16.87;15.80;;;17.60;99.90;;;;;;5046232;28;20452;-67
2021/08/16 05:31:34;;;;;;;19.30;17.30;;;17.60;99.90;;;;;;5046704;28;20475;-67
2021/08/16 05:34:01;;;;;;;16.70;15.80;;;17.60;99.90;;;;;;5046445;28;20476;-66
2021/08/16 05:36:28;;;;;;;17.80;16.50;;;17.60;99.90;;;;;;5046998;28;20452;-68
2021/08/16 05:38:54;;;;;;;17.83;16.70;;;17.60;99.90;;;;;;5046620;28;20455;-68
2021/08/16 05:41:21;;;;;;;16.73;15.70;;;17.60;99.90;;;;;;5046509;28;21259;-67
2021/08/16 05:43:48;;;;;;;19.07;17.37;;;17.70;99.90;;;;;;5045912;28;20472;-66
2021/08/16 05:46:14;;;;;;;16.87;15.83;;;17.60;99.90;;;;;;5043651;28;20452;-67
2021/08/16 05:48:42;;;;;;;16.30;15.50;;;17.60;99.90;;;;;;5042053;28;20453;-67
2021/08/16 05:51:09;;;;;;;16.97;15.80;;;17.50;99.90;;;;;;5041950;28;20454;-66
2021/08/16 05:53:36;;;;;;;17.53;16.30;;;17.50;99.90;;;;;;5041395;28;21262;-66
2021/08/16 05:56:03;;;;;;;17.30;16.03;;;17.60;99.90;;;;;;5041890;28;20451;-67
2021/08/16 05:58:29;;;;;;;17.33;16.17;;;17.80;99.90;;;;;;5040643;28;20455;-67
2021/08/16 06:00:57;;;;;;;16.00;15.00;;;17.80;99.90;;;;;;5041342;28;20480;-66
2021/08/16 06:03:23;;;;;;;17.00;15.70;;;17.90;99.90;;;;;;5040869;28;20463;-66
2021/08/16 06:05:53;;;;;;;17.03;16.07;;;17.90;99.90;;;;;;5041548;28;21226;-67
2021/08/16 06:08:19;;;;;;;17.03;15.93;;;18.00;99.90;;;;;;5041215;28;20459;-66
2021/08/16 06:10:46;;;;;;;17.00;16.10;;;18.10;99.90;;;;;;5041271;28;20444;-67
2021/08/16 06:13:13;;;;;;;16.60;15.80;;;18.10;99.90;;;;;;5044869;28;20475;-66
2021/08/16 06:15:39;;;;;;;18.07;16.93;;;18.30;99.90;;;;;;5048323;28;20460;-67
2021/08/16 06:18:06;;;;;;;18.10;17.20;;;18.40;99.90;;;;;;5042433;28;20459;-68
2021/08/16 06:20:33;;;;;;;16.67;15.93;;;18.50;99.90;;;;;;5040844;28;20490;-67
2021/08/16 06:23:01;;;;;;;17.10;16.20;;;18.70;99.90;;;;;;5039588;28;20977;-68
2021/08/16 06:25:28;;;;;;;17.40;16.30;;;18.60;99.90;;;;;;5039999;28;20479;-67
2021/08/16 06:27:54;;;;;;;16.90;15.80;;;18.60;99.90;;;;;;5039715;28;21304;-68
2021/08/16 06:30:21;;;;;;;17.30;16.17;;;18.60;99.90;;;;;;5039868;28;21125;-67
2021/08/16 06:32:48;;;;;;;17.17;16.20;;;18.50;99.90;;;;;;5039976;28;20567;-67
2021/08/16 06:35:17;;;;;;;18.53;17.33;;;18.50;99.90;;;;;;5043091;28;20529;-68
2021/08/16 06:37:46;;;;;;;17.67;16.63;;;18.60;99.90;;;;;;5043687;28;21101;-67
2021/08/16 06:40:14;;;;;;;17.37;16.37;;;18.70;99.90;;;;;;5042715;28;20490;-68
2021/08/16 06:42:41;;;;;;;18.80;17.47;;;18.80;99.90;;;;;;5043975;28;20458;-66
2021/08/16 06:45:10;;;;;;;26.50;18.80;;;18.90;99.90;;;;;;5058382;28;20473;-64
2021/08/16 06:47:38;;;;;;;18.67;17.43;;;18.90;99.90;;;;;;5047295;28;20448;-67
2021/08/16 06:50:07;;;;;;;18.67;17.07;;;19.00;99.90;;;;;;5022941;28;20465;-67
2021/08/16 06:52:34;;;;;;;19.03;17.53;;;19.20;99.90;;;;;;5021858;28;20543;-67
2021/08/16 06:55:02;;;;;;;18.30;17.00;;;19.30;99.90;;;;;;5033643;28;21373;-65
2021/08/16 06:57:33;;;;;;;19.00;17.77;;;19.40;99.90;;;;;;5044531;28;20463;-66
2021/08/16 07:00:00;;;;;;;18.10;16.80;;;19.50;99.90;;;;;;5044746;28;20480;-66
2021/08/16 07:02:27;;;;;;;17.40;16.40;;;19.70;99.90;;;;;;5044564;28;20944;-64
2021/08/16 07:04:54;;;;;;;19.20;17.70;;;19.60;99.90;;;;;;5044331;28;20464;-67
2021/08/16 07:07:22;;;;;;;18.47;17.10;;;19.50;99.90;;;;;;5043856;28;20451;-66
2021/08/16 07:09:48;;;;;;;17.57;16.50;;;19.70;99.90;;;;;;5045202;28;20448;-66
2021/08/16 07:12:15;;;;;;;18.30;17.00;;;19.70;99.90;;;;;;5044257;28;20444;-65
2021/08/16 07:14:43;;;;;;;17.77;16.57;;;19.70;99.90;;;;;;5043689;28;20476;-65
2021/08/16 07:17:10;;;;;;;17.70;16.60;;;19.70;99.90;;;;;;5043907;28;20451;-65
2021/08/16 07:19:36;;;;;;;17.80;16.63;;;19.90;99.90;;;;;;5044970;28;20490;-66
2021/08/16 07:22:03;;;;;;;18.07;16.90;;;20.00;99.90;;;;;;5045006;28;20456;-66
2021/08/16 07:24:30;;;;;;;17.93;16.90;;;20.00;99.90;;;;;;5045483;28;20468;-66
2021/08/16 07:26:57;;;;;;;17.83;17.00;;;20.10;99.90;;;;;;5044693;28;20444;-64
2021/08/16 07:29:25;;;;;;;17.93;16.97;;;20.40;99.90;;;;;;5044611;28;20448;-66
2021/08/16 07:31:53;;;;;;;18.43;16.97;;;20.50;99.90;;;;;;5043445;28;20456;-66
2021/08/16 07:34:19;;;;;;;17.17;16.00;;;20.40;99.90;;;;;;5043847;28;20528;-67
2021/08/16 07:36:46;;;;;;;18.90;17.57;;;20.50;99.90;;;;;;5044847;28;20448;-66
2021/08/16 07:39:14;;;;;;;18.23;17.23;;;20.40;99.90;;;;;;5046273;28;20459;-67
2021/08/16 07:41:41;;;;;;;17.93;16.90;;;20.50;99.90;;;;;;5053254;28;20484;-65
2021/08/16 07:44:07;;;;;;;17.10;16.13;;;20.50;99.90;;;;;;5053690;28;21002;-67
2021/08/16 07:46:34;;;;;;;19.00;18.00;;;20.80;99.90;;;;;;5054338;28;20448;-67
2021/08/16 07:49:02;;;;;;;17.93;16.90;;;20.70;99.90;;;;;;5054088;28;20440;-66
2021/08/16 07:51:29;;;;;;;17.23;16.30;;;20.70;99.90;;;;;;5053592;28;20449;-65
2021/08/16 07:53:56;;;;;;;17.57;16.57;;;20.60;99.90;;;;;;5054014;28;20475;-67
2021/08/16 07:56:22;;;;;;;17.40;16.50;;;20.40;99.90;;;;;;5055153;28;20451;-68
2021/08/16 07:58:49;;;;;;;20.33;17.20;;;20.20;99.90;;;;;;5054762;28;20444;-67
2021/08/16 08:01:17;;;;;;;17.53;16.33;;;20.20;99.90;;;;;;5056000;28;20491;-67
2021/08/16 08:03:44;;;;;;;18.67;17.43;;;19.80;99.90;;;;;;5053155;28;20468;-66
2021/08/16 08:06:12;;;;;;;17.60;16.70;;;19.70;99.90;;;;;;5051963;28;20440;-66
2021/08/16 08:08:39;;;;;;;17.93;16.93;;;19.90;99.90;;;;;;5051442;28;20918;-66
2021/08/16 08:11:05;;;;;;;17.70;16.40;;;19.90;99.90;;;;;;5052322;28;20894;-67
2021/08/16 08:13:32;;;;;;;18.70;17.50;;;19.90;99.90;;;;;;5052946;28;20977;-66
2021/08/16 08:15:59;;;;;;;17.67;16.77;;;20.00;99.90;;;;;;5053228;28;20440;-67
2021/08/16 08:18:25;;;;;;;17.77;16.57;;;20.10;99.90;;;;;;5053068;28;20447;-67
2021/08/16 08:20:53;;;;;;;19.57;18.23;;;20.20;99.90;;;;;;5052672;28;20480;-66
2021/08/16 08:23:21;;;;;;;18.93;17.73;;;20.40;99.90;;;;;;5053588;28;20451;-67
2021/08/16 08:25:48;;;;;;;18.43;17.43;;;20.60;99.90;;;;;;5054262;28;21022;-67
2021/08/16 08:28:15;;;;;;;18.43;17.23;;;20.90;99.90;;;;;;5054504;28;20502;-65
2021/08/16 08:30:43;;;;;;;17.00;16.20;;;21.10;99.90;;;;;;5056047;28;20498;-67
2021/08/16 08:33:11;;;;;;;17.77;16.70;;;21.50;99.90;;;;;;5054694;28;20535;-67
2021/08/16 08:35:38;;;;;;;18.13;17.00;;;21.80;99.90;;;;;;5054834;28;20452;-67
2021/08/16 08:38:05;;;;;;;17.67;16.77;;;22.20;99.90;;;;;;5053920;28;20444;-66
2021/08/16 08:40:33;;;;;;;18.90;17.80;;;22.40;99.90;;;;;;5052850;28;20476;-67
2021/08/16 08:43:00;;;;;;;18.33;17.13;;;22.70;99.90;;;;;;5052566;28;20452;-67
2021/08/16 08:45:28;;;;;;;18.23;17.30;;;22.60;99.90;;;;;;5052535;28;20546;-67
2021/08/16 08:47:55;;;;;;;17.50;16.50;;;22.60;99.90;;;;;;5052992;28;20444;-68
2021/08/16 08:50:24;;;;;;;17.87;16.93;;;22.30;99.90;;;;;;5054140;28;20437;-68
2021/08/16 08:52:54;;;;;;;16.93;16.00;;;22.00;99.90;;;;;;5053431;28;20456;-67
2021/08/16 08:55:21;;;;;;;19.03;18.03;;;21.70;99.90;;;;;;5053316;28;20496;-67
2021/08/16 08:57:49;;;;;;;18.87;17.77;;;21.40;99.90;;;;;;5054777;28;21138;-67
2021/08/16 09:00:18;;;;;;;17.90;17.00;;;21.50;99.90;;;;;;5052430;28;20472;-67
2021/08/16 09:02:56;;;;;;;18.23;17.17;;;21.60;99.90;;;;;;5052391;28;20809;-68
2021/08/16 09:05:23;;;;;;;17.87;16.83;;;22.10;99.90;;;;;;5052514;28;20468;-67
2021/08/16 09:07:50;;;;;;;18.70;17.70;;;22.20;99.90;;;;;;5054287;28;20447;-68
2021/08/16 09:10:18;;;;;;;17.90;16.90;;;22.30;99.90;;;;;;5053654;28;20506;-67
2021/08/16 09:12:45;;;;;;;17.40;16.60;;;22.20;99.90;;;;;;5053434;28;20444;-67
2021/08/16 09:15:18;;;;;;;17.60;16.60;;;21.90;99.90;;;;;;5052664;28;20472;-68
2021/08/16 09:17:45;;;;;;;19.10;17.90;;;21.80;99.90;;;;;;5052697;28;20884;-67
2021/08/16 09:20:17;;;;;;;19.30;18.17;;;21.60;99.90;;;;;;5052355;28;20472;-67
2021/08/16 09:22:55;;;;;;;18.50;17.00;;;21.20;99.90;;;;;;5052318;28;20527;-67
2021/08/16 09:25:23;;;;;;;18.40;17.60;;;20.90;99.90;;;;;;5052114;28;20460;-68
2021/08/16 09:27:50;;;;;;;18.13;17.20;;;21.00;99.90;;;;;;5052002;28;20463;-66
2021/08/16 09:30:28;;;;;;;18.13;17.23;;;21.20;99.90;;;;;;5051918;28;20503;-67
2021/08/16 09:32:55;;;;;;;18.47;17.40;;;21.50;99.90;;;;;;5051357;28;20448;-67
2021/08/16 09:35:22;;;;;;;18.10;17.03;;;21.70;99.90;;;;;;5051934;28;20983;-67
2021/08/16 09:37:54;;;;;;;18.00;17.00;;;21.70;99.90;;;;;;5052598;28;20452;-66
2021/08/16 09:40:21;;;;;;;17.90;17.00;;;22.20;99.90;;;;;;5052124;28;20534;-67
2021/08/16 09:42:49;;;;;;;18.40;17.30;;;22.70;99.90;;;;;;5051722;28;20452;-69
2021/08/16 09:45:30;;;;;;;17.67;16.87;;;22.90;99.90;;;;;;5051532;28;21011;-66
2021/08/16 09:47:59;;;;;;;17.20;16.50;;;23.00;99.90;;;;;;5053178;28;20455;-68
2021/08/16 09:50:37;;;;;;;17.70;16.90;;;22.90;99.90;;;;;;5054931;28;20444;-68
2021/08/16 09:53:07;;;;;;;19.87;17.87;;;22.90;99.90;;;;;;5054860;28;20558;-66
2021/08/16 09:55:38;;;;;;;18.40;17.13;;;22.70;99.90;;;;;;5033417;28;20461;-67
2021/08/16 09:58:09;;;;;;;17.60;16.60;;;22.70;99.90;;;;;;5049460;28;20447;-67
2021/08/16 10:00:38;;;;;;;18.87;18.07;;;22.50;99.90;;;;;;5052286;28;20522;-68
2021/08/16 10:03:07;;;;;;;17.37;16.60;;;22.50;99.90;;;;;;5051925;28;20444;-67
2021/08/16 10:05:36;;;;;;;17.83;16.93;;;22.50;99.90;;;;;;5052748;28;20482;-67
2021/08/16 10:08:08;;;;;;;18.97;17.77;;;22.40;99.90;;;;;;5052967;28;20474;-67
2021/08/16 10:10:36;;;;;;;19.40;18.60;;;22.40;99.90;;;;;;5051909;28;20919;-65
2021/08/16 10:13:04;;;;;;;19.57;18.57;;;22.10;99.90;;;;;;5052033;28;20683;-67
2021/08/16 10:15:35;;;;;;;18.60;17.80;;;21.80;99.90;;;;;;5051578;28;20472;-68
2021/08/16 10:18:04;;;;;;;19.63;18.40;;;21.50;99.90;;;;;;5052013;28;20448;-67
2021/08/16 10:20:32;;;;;;;19.90;18.67;;;21.20;99.90;;;;;;5052906;28;20476;-67
2021/08/16 10:22:59;;;;;;;19.13;18.07;;;21.10;99.90;;;;;;5053796;28;20450;-68
2021/08/16 10:25:25;;;;;;;19.00;17.93;;;20.90;99.90;;;;;;5053071;28;20471;-66
2021/08/16 10:28:01;;;;;;;19.17;17.97;;;20.70;99.90;;;;;;5052231;28;20522;-67
2021/08/16 10:30:28;;;;;;;19.07;18.17;;;20.50;99.90;;;;;;5055326;28;20466;-66
2021/08/16 10:33:04;;;;;;;20.03;19.03;;;20.20;99.90;;;;;;5055130;28;20443;-68
2021/08/16 10:35:39;;;;;;;20.10;18.83;;;20.00;99.90;;;;;;5054854;28;20468;-68
2021/08/16 10:38:08;;;;;;;21.93;20.40;;;19.70;99.90;;;;;;5054825;28;20462;-67
2021/08/16 10:40:41;;;;;;;20.70;19.67;;;19.50;99.90;;;;;;5056877;28;20475;-63
2021/08/16 10:43:10;;;;;;;19.07;17.70;;;19.60;99.90;;;;;;5057691;28;20448;-64
2021/08/16 10:45:44;;;;;;;18.00;16.83;;;19.20;99.90;;;;;;5056118;28;20467;-64
2021/08/16 10:48:21;;;;;;;16.80;16.00;;;18.50;99.90;;;;;;5056772;28;20558;-65
2021/08/16 10:50:48;;;;;;;15.43;11.97;;;18.20;99.90;;;;;;5062593;28;20493;-65
2021/08/16 10:53:15;;;;;;;3.77;3.30;;;18.00;99.90;;;;;;5063367;28;20440;-63
2021/08/16 10:55:43;;;;;;;3.97;3.67;;;18.00;99.90;;;;;;5063625;28;20480;-64
2021/08/16 10:58:10;;;;;;;5.50;3.40;;;18.00;99.90;;;;;;5063015;28;20444;-63
2021/08/16 11:00:38;;;;;;;7.17;3.70;;;18.30;99.90;;;;;;5065318;28;20436;-63
2021/08/16 11:03:07;;;;;;;3.73;3.40;;;18.30;99.90;;;;;;5066523;28;20454;-62
2021/08/16 11:05:36;;;;;;;5.03;3.67;;;18.70;99.90;;;;;;5063489;28;20781;-64
2021/08/16 11:08:06;;;;;;;3.70;3.40;;;19.20;99.90;;;;;;5067818;28;20535;-64
2021/08/16 11:10:41;;;;;;;4.60;4.30;;;19.30;99.90;;;;;;5066559;28;20451;-65
2021/08/16 11:13:16;;;;;;;4.83;4.43;;;19.00;99.90;;;;;;5065243;28;20440;-64
2021/08/16 11:15:43;;;;;;;6.73;4.47;;;19.00;99.90;;;;;;5055752;28;20944;-63
2021/08/16 11:18:12;;;;;;;5.07;4.57;;;18.70;99.90;;;;;;5054283;28;20863;-63
2021/08/16 11:20:40;;;;;;;5.67;5.00;;;18.30;99.90;;;;;;5054198;28;20440;-63
2021/08/16 11:23:07;;;;;;;7.77;4.00;;;18.40;99.90;;;;;;5054004;28;20447;-63
2021/08/16 11:25:34;;;;;;;4.47;4.23;;;18.40;99.90;;;;;;5054134;28;20471;-61
2021/08/16 11:28:02;;;;;;;4.57;4.17;;;18.00;99.90;;;;;;5054077;28;20447;-63
2021/08/16 11:30:30;;;;;;;4.17;3.33;;;18.20;99.90;;;;;;5034132;28;20437;-62
2021/08/16 11:32:57;;;;;;;5.77;3.63;;;18.20;99.90;;;;;;5034073;28;20841;-63
2021/08/16 11:35:25;;;;;;;3.83;3.50;;;18.00;99.90;;;;;;5034042;28;21020;-63
2021/08/16 11:37:54;;;;;;;5.70;4.00;;;17.80;99.90;;;;;;5046835;28;20510;-63
2021/08/16 11:40:21;;;;;;;4.67;4.27;;;17.70;99.90;;;;;;5052825;28;20971;-63
2021/08/16 11:42:48;;;;;;;5.10;4.70;;;17.60;99.90;;;;;;5053575;28;20487;-63
2021/08/16 11:45:17;;;;;;;7.80;6.60;;;17.50;99.90;;;;;;5053755;28;20835;-64
2021/08/16 11:47:44;;;;;;;6.30;5.10;;;17.50;99.90;;;;;;5053600;28;20936;-63
2021/08/16 11:50:13;;;;;;;5.33;4.93;;;17.40;99.90;;;;;;5053391;28;20955;-64
2021/08/16 11:52:41;;;;;;;6.17;5.57;;;17.30;99.90;;;;;;5053262;28;20444;-62
2021/08/16 11:55:11;;;;;;;9.13;5.97;;;17.20;99.90;;;;;;5053557;28;20469;-63
2021/08/16 11:57:38;;;;;;;9.17;7.33;;;17.20;99.90;;;;;;5053506;28;20498;-62
2021/08/16 12:00:08;;;;;;;6.97;6.27;;;17.10;99.90;;;;;;5053541;28;20447;-63
2021/08/16 12:02:37;;;;;;;9.63;6.23;;;16.90;99.90;;;;;;5053151;28;20488;-63
2021/08/16 12:05:05;;;;;;;9.73;7.17;;;16.80;99.90;;;;;;5052926;28;20464;-63
2021/08/16 12:07:32;;;;;;;7.10;5.80;;;16.80;99.90;;;;;;5053387;28;20463;-62
2021/08/16 12:09:59;;;;;;;11.50;7.33;;;16.60;99.90;;;;;;5053387;28;20440;-61
2021/08/16 12:12:29;;;;;;;8.07;6.43;;;16.40;99.90;;;;;;5053115;28;20451;-59
2021/08/16 12:15:04;;;;;;;7.60;6.73;;;16.30;99.90;;;;;;5053145;28;20475;-63
2021/08/16 12:17:31;;;;;;;7.80;6.63;;;16.30;99.90;;;;;;5053182;28;20447;-63
2021/08/16 12:20:02;;;;;;;8.67;7.73;;;16.50;99.90;;;;;;5052944;28;20452;-62
2021/08/16 12:22:29;;;;;;;9.37;7.87;;;16.60;99.90;;;;;;5052804;28;20515;-64
2021/08/16 12:25:05;;;;;;;11.37;8.17;;;16.60;99.90;;;;;;5053175;28;21027;-63
2021/08/16 12:27:33;;;;;;;13.60;6.90;;;16.60;99.90;;;;;;5052878;28;20480;-63
2021/08/16 12:30:00;;;;;;;12.43;7.37;;;16.70;99.90;;;;;;5053224;28;20456;-62
2021/08/16 12:32:29;;;;;;;9.37;5.77;;;16.70;99.90;;;;;;5052425;28;20444;-61
2021/08/16 12:34:58;;;;;;;11.30;7.87;;;16.70;99.90;;;;;;5052922;28;20495;-63
2021/08/16 12:37:27;;;;;;;7.50;6.67;;;16.70;99.90;;;;;;5052751;28;20448;-62
2021/08/16 12:40:06;;;;;;;11.40;7.53;;;16.70;99.90;;;;;;5053084;28;20436;-61
2021/08/16 12:42:34;;;;;;;8.87;6.13;;;16.60;99.90;;;;;;5052426;28;20511;-63
2021/08/16 12:45:01;;;;;;;13.63;7.17;;;16.60;99.90;;;;;;5052677;28;20856;-63
2021/08/16 12:47:32;;;;;;;7.10;6.00;;;16.40;99.90;;;;;;5052208;28;20451;-62
2021/08/16 12:50:01;;;;;;;7.40;5.67;;;16.40;99.90;;;;;;5051870;28;20444;-64
2021/08/16 12:52:28;;;;;;;10.80;6.10;;;16.40;99.90;;;;;;5051548;28;20539;-63
2021/08/16 12:54:56;;;;;;;15.20;7.10;;;16.40;99.90;;;;;;5052393;28;20475;-64
2021/08/16 12:57:23;;;;;;;8.97;6.23;;;16.50;99.90;;;;;;5052498;28;20809;-63
2021/08/16 12:59:52;;;;;;;7.27;6.10;;;16.70;99.90;;;;;;5052129;28;20502;-62
2021/08/16 13:02:23;;;;;;;10.60;7.60;;;16.70;99.90;;;;;;5051832;28;20488;-64
2021/08/16 13:04:50;;;;;;;11.30;7.67;;;16.90;99.90;;;;;;5052228;28;20507;-64
2021/08/16 13:07:17;;;;;;;9.87;6.80;;;17.00;99.90;;;;;;5052346;28;20448;-64
2021/08/16 13:09:44;;;;;;;15.67;8.33;;;17.10;99.90;;;;;;5052461;28;20778;-64
2021/08/16 13:12:11;;;;;;;8.10;7.30;;;17.40;99.90;;;;;;5052097;28;20436;-62
2021/08/16 13:14:38;;;;;;;9.80;8.80;;;17.50;99.90;;;;;;5051681;28;20476;-64
2021/08/16 13:17:07;;;;;;;12.53;9.40;;;17.60;99.90;;;;;;5052066;28;20447;-64
2021/08/16 13:19:34;;;;;;;13.10;9.60;;;17.60;99.90;;;;;;5051854;28;20818;-64
2021/08/16 13:22:02;;;;;;;9.57;8.67;;;17.70;99.90;;;;;;5051644;28;20575;-60
2021/08/16 13:24:28;;;;;;;11.93;10.70;;;17.70;99.90;;;;;;5051978;28;20464;-63
2021/08/16 13:26:56;;;;;;;11.80;10.63;;;17.90;99.90;;;;;;5051815;28;20455;-62
2021/08/16 13:29:23;;;;;;;12.30;10.93;;;18.20;99.90;;;;;;5051497;28;20455;-62
2021/08/16 13:31:51;;;;;;;12.83;10.90;;;18.40;99.90;;;;;;5051762;28;20452;-64
2021/08/16 13:34:20;;;;;;;16.30;12.27;;;18.80;99.90;;;;;;5051771;28;20468;-64
2021/08/16 13:36:47;;;;;;;14.37;13.17;;;19.20;99.90;;;;;;5048408;28;20530;-62
2021/08/16 13:39:13;;;;;;;15.77;14.03;;;19.30;99.90;;;;;;5050276;28;20448;-65
2021/08/16 13:41:40;;;;;;;14.60;13.37;;;19.30;99.90;;;;;;5051101;28;20483;-64
2021/08/16 13:44:08;;;;;;;15.37;14.07;;;19.20;99.90;;;;;;5031447;28;20817;-65
2021/08/16 13:46:35;;;;;;;16.47;15.07;;;19.00;99.90;;;;;;5031654;28;20445;-63
2021/08/16 13:49:02;;;;;;;18.07;16.30;;;18.80;99.90;;;;;;5031727;28;20717;-65
2021/08/16 13:51:30;;;;;;;14.83;13.30;;;18.50;99.90;;;;;;5031559;28;20453;-65
2021/08/16 13:53:56;;;;;;;16.50;15.20;;;18.60;99.90;;;;;;5031604;28;20497;-64
2021/08/16 13:56:23;;;;;;;16.17;14.90;;;18.60;99.90;;;;;;5033779;28;20460;-65
2021/08/16 13:58:50;;;;;;;17.77;16.13;;;18.60;99.90;;;;;;5039895;28;21219;-62
2021/08/16 14:01:17;;;;;;;17.30;16.13;;;18.60;99.90;;;;;;5039726;28;20440;-65
2021/08/16 14:03:43;;;;;;;19.20;17.67;;;18.70;99.90;;;;;;5041934;28;20517;-66
2021/08/16 14:06:10;;;;;;;19.13;17.60;;;18.90;99.90;;;;;;5046557;28;20446;-64
2021/08/16 14:08:38;;;;;;;20.10;18.80;;;18.70;99.90;;;;;;5045960;28;20523;-65
2021/08/16 14:11:05;;;;;;;23.33;21.40;;;18.50;99.90;;;;;;5045888;28;20448;-61
2021/08/16 14:13:32;;;;;;;20.70;19.07;;;18.50;99.90;;;;;;5046097;28;20436;-63
2021/08/16 14:15:59;;;;;;;22.70;20.57;;;18.60;99.90;;;;;;5046254;28;20447;-61
2021/08/16 14:18:26;;;;;;;21.87;20.20;;;18.50;99.90;;;;;;5046127;28;20805;-58
2021/08/16 14:20:52;;;;;;;21.37;19.77;;;18.50;99.90;;;;;;5046312;28;20483;-61
2021/08/16 14:23:19;;;;;;;23.10;21.20;;;18.40;99.90;;;;;;5045903;28;20489;-63
2021/08/16 14:25:49;;;;;;;22.93;20.93;;;18.40;99.90;;;;;;5046354;28;20456;-61
2021/08/16 14:28:16;;;;;;;20.67;19.03;;;18.20;99.90;;;;;;5046277;28;20460;-61
2021/08/16 14:30:44;;;;;;;9.23;6.77;;;17.70;99.90;;;;;;5046167;28;20456;-62
2021/08/16 14:33:11;;;;;;;11.43;6.67;;;15.60;99.90;;;;;;5045723;28;20471;-62
2021/08/16 14:35:38;;;;;;;7.60;5.77;;;15.00;99.90;;;;;;5045877;28;20455;-63
2021/08/16 14:38:05;;;;;;;11.90;6.63;;;14.70;99.90;;;;;;5046270;28;20452;-61
2021/08/16 14:40:32;;;;;;;8.13;6.47;;;14.80;99.90;;;;;;5046148;28;20444;-62
2021/08/16 14:43:00;;;;;;;10.53;5.50;;;14.80;99.90;;;;;;5045788;28;20490;-61
2021/08/16 14:45:27;;;;;;;11.17;6.03;;;15.00;99.90;;;;;;5046025;28;20471;-63
2021/08/16 14:47:54;;;;;;;12.33;7.80;;;15.20;99.90;;;;;;5045842;28;20460;-62
2021/08/16 14:50:21;;;;;;;11.00;6.50;;;15.40;99.90;;;;;;5045965;28;20455;-64
2021/08/16 14:52:48;;;;;;;11.73;7.37;;;15.70;99.90;;;;;;5045771;28;20451;-62
2021/08/16 14:55:14;;;;;;;11.70;8.50;;;15.90;99.90;;;;;;5045844;28;20475;-63
2021/08/16 14:57:41;;;;;;;8.37;5.63;;;16.20;99.90;;;;;;5045896;28;20452;-62
2021/08/16 15:00:11;;;;;;;11.93;6.47;;;16.30;99.90;;;;;;5045820;28;20456;-62
2021/08/16 15:02:38;;;;;;;7.90;6.23;;;16.40;99.90;;;;;;5045611;28;20483;-63
2021/08/16 15:05:05;;;;;;;5.40;4.70;;;16.40;99.90;;;;;;5045876;28;20546;-62
2021/08/16 15:07:35;;;;;;;11.40;9.37;;;16.20;99.90;;;;;;5046042;28;21112;-63
2021/08/16 15:10:01;;;;;;;9.90;9.00;;;16.10;99.90;;;;;;5045955;28;20447;-63
2021/08/16 15:12:28;;;;;;;12.73;11.83;;;16.10;99.90;;;;;;5045771;28;20452;-64
2021/08/16 15:14:55;;;;;;;12.53;11.83;;;16.10;99.90;;;;;;5044119;28;20861;-63
2021/08/16 15:17:24;;;;;;;13.60;12.50;;;16.00;99.90;;;;;;5042475;28;20487;-62
2021/08/16 15:19:50;;;;;;;15.13;14.23;;;15.90;99.90;;;;;;5042731;28;20492;-63
2021/08/16 15:22:18;;;;;;;13.93;12.67;;;15.80;99.90;;;;;;5042369;28;21136;-62
2021/08/16 15:24:45;;;;;;;13.23;12.40;;;15.90;99.90;;;;;;5042408;28;20475;-63
2021/08/16 15:27:12;;;;;;;15.03;14.13;;;15.90;99.90;;;;;;5042246;28;20459;-63
2021/08/16 15:29:41;;;;;;;14.07;13.47;;;16.00;99.90;;;;;;5043140;28;21079;-64
2021/08/16 15:32:08;;;;;;;14.67;13.63;;;15.90;99.90;;;;;;5042168;28;21249;-63
2021/08/16 15:34:36;;;;;;;14.10;13.40;;;15.80;99.90;;;;;;5042354;28;20475;-63
2021/08/16 15:37:03;;;;;;;14.80;13.40;;;15.60;99.90;;;;;;5042300;28;20452;-63
2021/08/16 15:39:30;;;;;;;10.13;9.10;;;15.40;99.90;;;;;;5042206;28;20452;-62
2021/08/16 15:41:57;;;;;;;11.87;11.17;;;15.20;99.90;;;;;;5041745;28;20965;-62
2021/08/16 15:44:23;;;;;;;12.70;12.00;;;15.10;99.90;;;;;;5042202;28;20526;-62
2021/08/16 15:46:50;;;;;;;13.10;12.27;;;14.90;99.90;;;;;;5041831;28;20444;-63
2021/08/16 15:49:17;;;;;;;12.63;11.70;;;14.80;99.90;;;;;;5037367;28;20452;-61
2021/08/16 15:51:45;;;;;;;12.70;11.57;;;14.70;99.90;;;;;;5021720;28;20460;-62
2021/08/16 15:54:13;;;;;;;10.67;9.97;;;14.60;99.90;;;;;;5038704;28;20491;-63
2021/08/16 15:56:41;;;;;;;13.27;11.70;;;14.60;99.90;;;;;;5041918;28;20461;-63
2021/08/16 15:59:08;;;;;;;12.33;10.30;;;14.60;99.90;;;;;;5041936;28;20448;-63
2021/08/16 16:01:35;;;;;;;10.97;9.90;;;14.60;99.90;;;;;;5041558;28;20557;-62
2021/08/16 16:04:02;;;;;;;9.43;8.83;;;14.60;99.90;;;;;;5041697;28;20491;-63
2021/08/16 16:06:28;;;;;;;12.00;8.10;;;14.60;99.90;;;;;;5041555;28;21032;-62
2021/08/16 16:08:57;;;;;;;10.23;7.77;;;14.70;99.90;;;;;;5041729;28;20452;-62
2021/08/16 16:11:23;;;;;;;7.93;7.23;;;14.70;99.90;;;;;;5041543;28;20474;-64
2021/08/16 16:13:50;;;;;;;11.37;7.90;;;14.80;99.90;;;;;;5041475;28;20840;-62
2021/08/16 16:16:16;;;;;;;9.33;7.60;;;14.80;99.90;;;;;;5041723;28;20795;-62
2021/08/16 16:18:43;;;;;;;14.13;8.17;;;14.90;99.90;;;;;;5060709;28;20528;-60
2021/08/16 16:21:12;;;;;;;9.10;8.20;;;14.90;99.90;;;;;;5061245;28;20447;-62